Time;durP1;ratioP1;P1;durP2;ratioP2;P2;SDS_P1;SDS_P2;PMS_P1;PMS_P2;Temp;Humidity;BMP_temperature;BMP_pressure;BME280_temperature;BME280_humidity;BME280_pressure;Samples;Min_cycle;Max_cycle;Signal;HPM_P1;HPM_P2
2024/01/06 00:01:31;;;;;;;38.90;16.03;;;6.50;99.90;;;;;;4975278;28;20030;-79
2024/01/06 00:03:57;;;;;;;43.70;17.33;;;6.50;99.90;;;;;;4974769;28;20121;-79
2024/01/06 00:06:24;;;;;;;36.03;16.43;;;6.50;99.90;;;;;;4973481;28;20027;-79
2024/01/06 00:08:53;;;;;;;38.37;15.77;;;6.50;99.90;;;;;;4957471;28;20565;-79
2024/01/06 00:11:20;;;;;;;39.00;17.50;;;6.50;99.90;;;;;;4974945;28;20431;-79
2024/01/06 00:13:46;;;;;;;41.43;16.93;;;6.50;99.90;;;;;;4974835;28;20027;-78
2024/01/06 00:16:11;;;;;;;36.87;15.87;;;6.50;99.90;;;;;;4957194;28;20062;-79
2024/01/06 00:18:37;;;;;;;41.87;17.67;;;6.40;99.90;;;;;;4974744;28;20031;-79
2024/01/06 00:21:03;;;;;;;39.93;16.63;;;6.40;99.90;;;;;;4974315;28;20101;-79
2024/01/06 00:23:29;;;;;;;39.30;15.87;;;6.40;99.90;;;;;;4957133;28;20062;-80
2024/01/06 00:25:56;;;;;;;39.63;16.83;;;6.40;99.90;;;;;;4974749;28;20105;-79
2024/01/06 00:28:21;;;;;;;37.57;15.20;;;6.40;99.90;;;;;;4974401;28;20026;-79
2024/01/06 00:30:47;;;;;;;43.00;17.40;;;6.30;99.90;;;;;;4974293;28;20027;-79
2024/01/06 00:33:13;;;;;;;36.67;16.43;;;6.40;99.90;;;;;;4974289;28;20034;-79
2024/01/06 00:35:39;;;;;;;37.47;16.43;;;6.30;99.90;;;;;;4974321;28;20034;-79
2024/01/06 00:38:05;;;;;;;39.40;15.13;;;6.30;99.90;;;;;;4974252;28;20078;-79
2024/01/06 00:40:32;;;;;;;36.97;15.07;;;6.30;99.90;;;;;;4974480;28;20042;-79
2024/01/06 00:42:58;;;;;;;31.97;13.27;;;6.30;99.90;;;;;;4974033;28;20019;-79
2024/01/06 00:45:23;;;;;;;34.83;15.10;;;6.30;99.90;;;;;;4974195;28;20065;-79
2024/01/06 00:47:49;;;;;;;39.43;15.67;;;6.30;99.90;;;;;;4974389;28;20494;-79
2024/01/06 00:50:18;;;;;;;38.13;15.43;;;6.30;99.90;;;;;;4974149;28;20462;-79
2024/01/06 00:52:44;;;;;;;37.80;16.13;;;6.20;99.90;;;;;;4974098;28;20038;-80
2024/01/06 00:55:09;;;;;;;37.07;14.53;;;6.20;99.90;;;;;;4974056;28;20023;-79
2024/01/06 00:57:35;;;;;;;36.57;15.50;;;6.20;99.90;;;;;;4974465;28;20526;-80
2024/01/06 01:00:00;;;;;;;37.13;14.73;;;6.20;99.90;;;;;;4974211;28;20090;-79
2024/01/06 01:02:26;;;;;;;37.80;14.50;;;6.20;99.90;;;;;;4974477;28;20035;-79
2024/01/06 01:04:53;;;;;;;35.13;15.23;;;6.20;99.90;;;;;;4974253;28;20030;-79
2024/01/06 01:07:18;;;;;;;37.30;14.73;;;6.20;99.90;;;;;;4974083;28;20114;-79
2024/01/06 01:09:44;;;;;;;33.63;14.07;;;6.10;99.90;;;;;;4974227;28;20106;-80
2024/01/06 01:12:10;;;;;;;33.17;14.23;;;6.10;99.90;;;;;;4974497;28;20031;-82
2024/01/06 01:14:35;;;;;;;32.93;14.83;;;6.10;99.90;;;;;;4973036;28;20131;-80
2024/01/06 01:17:01;;;;;;;34.60;13.93;;;6.10;99.90;;;;;;4974151;28;20054;-78
2024/01/06 01:19:26;;;;;;;36.83;14.43;;;6.00;99.90;;;;;;4974284;28;20027;-78
2024/01/06 01:21:55;;;;;;;35.47;15.07;;;6.00;99.90;;;;;;4973801;28;20106;-78
2024/01/06 01:24:24;;;;;;;35.90;14.50;;;6.00;99.90;;;;;;4973886;28;20132;-78
2024/01/06 01:26:50;;;;;;;30.83;14.07;;;6.00;99.90;;;;;;4973907;28;20039;-78
2024/01/06 01:29:17;;;;;;;32.17;14.10;;;5.90;99.90;;;;;;4973651;28;20471;-79
2024/01/06 01:31:42;;;;;;;33.20;13.93;;;5.90;99.90;;;;;;4973973;28;20030;-79
2024/01/06 01:34:08;;;;;;;32.83;13.60;;;5.90;99.90;;;;;;4976695;28;20031;-77
2024/01/06 01:36:34;;;;;;;30.20;13.20;;;6.00;99.90;;;;;;4977663;28;20145;-77
2024/01/06 01:38:59;;;;;;;28.67;12.23;;;6.00;99.90;;;;;;4977425;28;20082;-78
2024/01/06 01:41:25;;;;;;;30.20;12.33;;;6.00;99.90;;;;;;4976436;28;20463;-77
2024/01/06 01:43:57;;;;;;;28.67;12.57;;;5.90;99.90;;;;;;4976059;28;20026;-78
2024/01/06 01:46:27;;;;;;;28.77;14.00;;;5.90;99.90;;;;;;4976439;28;20445;-77
2024/01/06 01:48:57;;;;;;;29.63;12.83;;;5.90;99.90;;;;;;4977411;28;20023;-78
2024/01/06 01:51:26;;;;;;;29.80;13.73;;;5.90;99.90;;;;;;4977360;28;20084;-78
2024/01/06 01:53:53;;;;;;;31.83;13.57;;;5.90;99.90;;;;;;4960066;28;20117;-79
2024/01/06 01:56:19;;;;;;;26.90;13.10;;;6.00;99.90;;;;;;4977389;28;20101;-78
2024/01/06 01:58:46;;;;;;;27.83;12.80;;;6.00;99.90;;;;;;4959807;28;20019;-79
2024/01/06 02:01:12;;;;;;;25.43;12.07;;;5.90;99.90;;;;;;4977086;28;20557;-79
2024/01/06 02:03:40;;;;;;;30.03;13.10;;;5.90;99.90;;;;;;4976955;28;20023;-79
2024/01/06 02:06:06;;;;;;;28.30;12.57;;;5.90;99.90;;;;;;4959739;28;20463;-79
2024/01/06 02:08:32;;;;;;;32.23;13.17;;;5.90;99.90;;;;;;4977144;28;20019;-79
2024/01/06 02:10:57;;;;;;;33.10;15.30;;;5.90;99.90;;;;;;4976723;28;20030;-78
2024/01/06 02:13:24;;;;;;;31.10;14.90;;;5.90;99.90;;;;;;4976948;28;20395;-79
2024/01/06 02:15:49;;;;;;;32.03;14.10;;;5.90;99.90;;;;;;4976758;28;20031;-78
2024/01/06 02:18:16;;;;;;;37.90;16.00;;;5.90;99.90;;;;;;4976830;28;20035;-79
2024/01/06 02:20:47;;;;;;;32.40;14.70;;;5.90;99.90;;;;;;4975717;28;20553;-79
2024/01/06 02:23:13;;;;;;;40.30;15.97;;;5.80;99.90;;;;;;4975465;28;20026;-79
2024/01/06 02:25:38;;;;;;;36.37;15.97;;;5.80;99.90;;;;;;4976900;28;20027;-79
2024/01/06 02:28:04;;;;;;;42.53;17.80;;;5.80;99.90;;;;;;4977537;28;20038;-79
2024/01/06 02:30:30;;;;;;;42.80;17.37;;;5.70;99.90;;;;;;4976141;28;20023;-79
2024/01/06 02:32:55;;;;;;;43.77;19.40;;;5.70;99.90;;;;;;4976071;28;20054;-79
2024/01/06 02:35:21;;;;;;;36.50;16.53;;;5.70;99.90;;;;;;4976434;28;20398;-79
2024/01/06 02:37:46;;;;;;;39.37;17.43;;;5.60;99.90;;;;;;4958783;28;20027;-78
2024/01/06 02:40:13;;;;;;;37.90;16.50;;;5.60;99.90;;;;;;4976124;28;20042;-79
2024/01/06 02:42:39;;;;;;;39.07;16.67;;;5.60;99.90;;;;;;4976055;28;20062;-78
2024/01/06 02:45:06;;;;;;;37.37;16.50;;;5.60;99.90;;;;;;4974998;28;20050;-78
2024/01/06 02:47:32;;;;;;;43.23;17.23;;;5.60;99.90;;;;;;4974983;28;20061;-79
2024/01/06 02:49:57;;;;;;;39.40;17.37;;;5.60;99.90;;;;;;4976264;28;20058;-78
2024/01/06 02:52:23;;;;;;;42.13;19.30;;;5.50;99.90;;;;;;4976180;28;20030;-78
2024/01/06 02:54:49;;;;;;;38.37;16.73;;;5.50;99.90;;;;;;4976370;28;20487;-79
2024/01/06 02:57:15;;;;;;;38.60;17.33;;;5.50;99.90;;;;;;4977149;28;20070;-78
2024/01/06 02:59:40;;;;;;;40.53;18.87;;;5.50;99.90;;;;;;4976192;28;20022;-79
2024/01/06 03:02:06;;;;;;;39.40;17.67;;;5.60;99.90;;;;;;4975066;28;20459;-78
2024/01/06 03:04:32;;;;;;;40.77;18.17;;;5.60;99.90;;;;;;4974814;28;20023;-78
2024/01/06 03:06:57;;;;;;;46.37;21.00;;;5.50;99.90;;;;;;4974990;28;20030;-79
2024/01/06 03:09:23;;;;;;;43.67;21.30;;;5.50;99.90;;;;;;4975997;28;20027;-79
2024/01/06 03:11:48;;;;;;;46.33;20.73;;;5.60;99.90;;;;;;4974404;28;20073;-78
2024/01/06 03:14:14;;;;;;;45.67;20.37;;;5.40;99.90;;;;;;4974326;28;20022;-78
2024/01/06 03:16:40;;;;;;;44.93;20.73;;;5.40;99.90;;;;;;4974866;28;20019;-78
2024/01/06 03:19:06;;;;;;;41.73;19.97;;;5.40;99.90;;;;;;4975741;28;20027;-79
2024/01/06 03:21:31;;;;;;;40.93;19.07;;;5.40;99.90;;;;;;4975584;28;20030;-78
2024/01/06 03:23:57;;;;;;;42.03;19.33;;;5.40;99.90;;;;;;4975420;28;20490;-78
2024/01/06 03:26:23;;;;;;;35.00;16.73;;;5.40;99.90;;;;;;4975437;28;20498;-79
2024/01/06 03:28:49;;;;;;;42.23;18.93;;;5.50;99.90;;;;;;4975524;28;20023;-78
2024/01/06 03:31:15;;;;;;;39.90;19.87;;;5.40;99.90;;;;;;4974991;28;20039;-79
2024/01/06 03:33:42;;;;;;;38.10;19.33;;;5.50;99.90;;;;;;4975531;28;20431;-79
2024/01/06 03:36:08;;;;;;;38.57;18.13;;;5.50;99.90;;;;;;4975556;28;20027;-78
2024/01/06 03:38:34;;;;;;;34.00;17.20;;;5.50;99.90;;;;;;4975363;28;20077;-79
2024/01/06 03:40:59;;;;;;;35.10;17.97;;;5.50;99.90;;;;;;4974836;28;20407;-78
2024/01/06 03:43:25;;;;;;;34.20;16.97;;;5.40;99.90;;;;;;4975130;28;20098;-79
2024/01/06 03:45:51;;;;;;;34.17;17.23;;;5.50;99.90;;;;;;4975039;28;20026;-79
2024/01/06 03:48:16;;;;;;;38.73;17.77;;;5.50;99.90;;;;;;4975361;28;20082;-78
2024/01/06 03:50:42;;;;;;;36.67;18.07;;;5.60;99.90;;;;;;4976114;28;20054;-79
2024/01/06 03:53:08;;;;;;;35.30;17.10;;;5.50;99.90;;;;;;4975275;28;20122;-79
2024/01/06 03:55:33;;;;;;;33.03;17.87;;;5.50;99.90;;;;;;4974303;28;20030;-79
2024/01/06 03:57:59;;;;;;;36.77;18.40;;;5.40;99.90;;;;;;4975034;28;20031;-78
2024/01/06 04:00:27;;;;;;;37.43;18.77;;;5.50;99.90;;;;;;4975064;28;20041;-78
2024/01/06 04:02:53;;;;;;;40.47;17.83;;;5.50;99.90;;;;;;4975198;28;20054;-78
2024/01/06 04:05:19;;;;;;;42.93;19.40;;;5.50;99.90;;;;;;4974889;28;20055;-79
2024/01/06 04:07:44;;;;;;;37.67;16.73;;;5.50;99.90;;;;;;4974879;28;20535;-78
2024/01/06 04:10:10;;;;;;;33.87;15.57;;;5.50;99.90;;;;;;4974703;28;20026;-79
2024/01/06 04:12:35;;;;;;;43.93;19.33;;;5.50;99.90;;;;;;4974640;28;20073;-78
2024/01/06 04:15:01;;;;;;;38.43;17.87;;;5.50;99.90;;;;;;4974764;28;20077;-77
2024/01/06 04:17:27;;;;;;;42.17;19.50;;;5.50;99.90;;;;;;4973366;28;20498;-78
2024/01/06 04:19:53;;;;;;;38.97;19.13;;;5.50;99.90;;;;;;4957403;28;20018;-79
2024/01/06 04:22:19;;;;;;;40.83;19.97;;;5.50;99.90;;;;;;4974562;28;20471;-78
2024/01/06 04:24:44;;;;;;;37.20;17.77;;;5.50;99.90;;;;;;4974481;28;20030;-79
2024/01/06 04:27:10;;;;;;;38.83;17.37;;;5.50;99.90;;;;;;4973252;28;20101;-78
2024/01/06 04:29:36;;;;;;;36.20;17.17;;;5.40;99.90;;;;;;4974160;28;20454;-78
2024/01/06 04:32:01;;;;;;;34.20;16.17;;;5.50;99.90;;;;;;4974037;28;20037;-78
2024/01/06 04:34:27;;;;;;;39.53;17.63;;;5.50;99.90;;;;;;4974475;28;20538;-78
2024/01/06 04:36:53;;;;;;;38.57;18.07;;;5.40;99.90;;;;;;4973261;28;20019;-78
2024/01/06 04:39:19;;;;;;;38.43;16.67;;;5.40;99.90;;;;;;4974285;28;20041;-78
2024/01/06 04:41:44;;;;;;;37.07;18.53;;;5.40;99.90;;;;;;4957168;28;20022;-77
2024/01/06 04:44:10;;;;;;;38.07;15.73;;;5.40;99.90;;;;;;4973995;28;20031;-78
2024/01/06 04:46:35;;;;;;;39.37;18.10;;;5.40;99.90;;;;;;4972996;28;20110;-78
2024/01/06 04:49:01;;;;;;;38.80;17.73;;;5.40;99.90;;;;;;4974340;28;20422;-78
2024/01/06 04:51:27;;;;;;;41.60;18.23;;;5.40;99.90;;;;;;4956817;28;20027;-78
2024/01/06 04:53:52;;;;;;;38.73;17.60;;;5.30;99.90;;;;;;4973868;28;20486;-78
2024/01/06 04:56:18;;;;;;;36.57;17.80;;;5.30;99.90;;;;;;4974207;28;20023;-78
2024/01/06 04:58:44;;;;;;;31.03;16.00;;;5.30;99.90;;;;;;4974307;28;20023;-78
2024/01/06 05:01:10;;;;;;;35.13;16.70;;;5.30;99.90;;;;;;4974102;28;20521;-79
2024/01/06 05:03:36;;;;;;;36.23;17.60;;;5.30;99.90;;;;;;4973896;28;20019;-78
2024/01/06 05:06:01;;;;;;;34.43;16.40;;;5.20;99.90;;;;;;4956593;28;20439;-78
2024/01/06 05:08:27;;;;;;;34.93;16.83;;;5.20;99.90;;;;;;4974537;28;20027;-78
2024/01/06 05:10:56;;;;;;;37.83;16.93;;;5.20;99.90;;;;;;4978000;28;20387;-78
2024/01/06 05:13:21;;;;;;;34.37;16.07;;;5.20;99.90;;;;;;4977720;28;20034;-78
2024/01/06 05:15:47;;;;;;;32.77;16.47;;;5.20;99.90;;;;;;4976778;28;20019;-78
2024/01/06 05:18:12;;;;;;;31.43;15.13;;;5.10;99.90;;;;;;4977761;28;20102;-79
2024/01/06 05:20:40;;;;;;;30.60;14.60;;;5.10;99.90;;;;;;4960395;28;20027;-77
2024/01/06 05:23:06;;;;;;;33.67;14.67;;;5.10;99.90;;;;;;4977921;28;20070;-78
2024/01/06 05:25:32;;;;;;;27.83;13.73;;;5.10;99.90;;;;;;4977691;28;20019;-77
2024/01/06 05:27:57;;;;;;;25.17;13.20;;;5.20;99.90;;;;;;4976460;28;20026;-77
2024/01/06 05:30:23;;;;;;;27.97;12.47;;;5.10;99.90;;;;;;4977702;28;20434;-77
2024/01/06 05:32:49;;;;;;;24.87;11.33;;;5.00;99.90;;;;;;4977526;28;20509;-77
2024/01/06 05:35:16;;;;;;;23.57;11.40;;;5.00;99.90;;;;;;4977617;28;20049;-78
2024/01/06 05:37:42;;;;;;;26.33;12.00;;;5.00;99.90;;;;;;4977949;28;20026;-78
2024/01/06 05:40:09;;;;;;;24.03;11.37;;;5.00;99.90;;;;;;4977305;28;20051;-78
2024/01/06 05:42:34;;;;;;;24.83;12.53;;;5.00;99.90;;;;;;4977701;28;20054;-78
2024/01/06 05:45:00;;;;;;;25.77;12.33;;;5.00;99.90;;;;;;4977511;28;20031;-78
2024/01/06 05:47:25;;;;;;;28.47;13.43;;;5.00;99.90;;;;;;4977230;28;20098;-78
2024/01/06 05:49:51;;;;;;;27.63;12.80;;;4.90;99.90;;;;;;4977294;28;20039;-78
2024/01/06 05:52:17;;;;;;;26.40;12.37;;;4.90;99.90;;;;;;4977329;28;20035;-78
2024/01/06 05:54:42;;;;;;;27.50;13.80;;;4.90;99.90;;;;;;4976916;28;20109;-77
2024/01/06 05:57:12;;;;;;;25.33;14.00;;;4.90;99.90;;;;;;4977522;28;20463;-79
2024/01/06 05:59:38;;;;;;;31.13;14.27;;;4.90;99.90;;;;;;4959811;28;20041;-79
2024/01/06 06:02:04;;;;;;;35.93;15.30;;;4.90;99.90;;;;;;4977141;28;20035;-79
2024/01/06 06:04:30;;;;;;;33.10;16.10;;;4.90;99.90;;;;;;4976679;28;20031;-78
2024/01/06 06:06:55;;;;;;;27.27;13.57;;;4.80;99.90;;;;;;4977117;28;20454;-80
2024/01/06 06:09:21;;;;;;;25.30;13.60;;;4.80;99.90;;;;;;4976930;28;20038;-79
2024/01/06 06:11:48;;;;;;;31.03;15.43;;;4.70;99.90;;;;;;4976636;28;20085;-79
2024/01/06 06:14:13;;;;;;;31.17;14.20;;;4.70;99.90;;;;;;4977066;28;20023;-80
2024/01/06 06:16:39;;;;;;;29.53;14.80;;;4.70;99.90;;;;;;4976361;28;20483;-80
2024/01/06 06:19:05;;;;;;;32.30;15.00;;;4.70;99.90;;;;;;4976319;28;20030;-79
2024/01/06 06:21:31;;;;;;;29.50;15.10;;;4.70;99.90;;;;;;4976793;28;20030;-79
2024/01/06 06:23:56;;;;;;;28.13;14.87;;;4.70;99.90;;;;;;4977173;28;20115;-80
2024/01/06 06:26:22;;;;;;;30.63;14.50;;;4.70;99.90;;;;;;4976733;28;20395;-80
2024/01/06 06:28:48;;;;;;;27.93;14.70;;;4.60;99.90;;;;;;4976440;28;20030;-80
2024/01/06 06:31:13;;;;;;;24.00;13.70;;;4.70;99.90;;;;;;4976019;28;20460;-80
2024/01/06 06:33:39;;;;;;;23.90;13.50;;;4.60;99.90;;;;;;4976724;28;20061;-79
2024/01/06 06:36:06;;;;;;;30.10;14.90;;;4.60;99.90;;;;;;4976821;28;20427;-80
2024/01/06 06:38:31;;;;;;;26.53;15.17;;;4.60;99.90;;;;;;4965098;28;20376;-80
2024/01/06 06:40:57;;;;;;;27.43;15.23;;;4.60;99.90;;;;;;4977612;28;20121;-80
2024/01/06 06:43:22;;;;;;;30.60;15.37;;;4.50;99.90;;;;;;4995746;28;20057;-80
2024/01/06 06:45:48;;;;;;;29.07;15.47;;;4.60;99.90;;;;;;4995794;28;20030;-80
2024/01/06 06:48:14;;;;;;;28.90;16.67;;;4.50;99.90;;;;;;4985905;28;20440;-79
2024/01/06 06:50:41;;;;;;;28.77;16.07;;;4.50;99.90;;;;;;4997988;28;20057;-80
2024/01/06 06:53:07;;;;;;;25.30;14.63;;;4.50;99.90;;;;;;4997353;28;20116;-80
2024/01/06 06:55:33;;;;;;;28.50;15.43;;;4.50;99.90;;;;;;5015443;28;20087;-80
2024/01/06 06:57:58;;;;;;;26.70;14.97;;;4.40;99.90;;;;;;5015122;28;20572;-80
2024/01/06 07:00:24;;;;;;;29.17;15.63;;;4.50;99.90;;;;;;4997726;28;20014;-80
2024/01/06 07:02:50;;;;;;;26.97;15.07;;;4.40;99.90;;;;;;5014890;28;20032;-80
2024/01/06 07:05:15;;;;;;;26.43;16.13;;;4.50;99.90;;;;;;5015103;28;20034;-80
2024/01/06 07:07:44;;;;;;;23.67;13.57;;;4.40;99.90;;;;;;5015155;28;20022;-79
2024/01/06 07:10:10;;;;;;;24.50;13.43;;;4.40;99.90;;;;;;5014669;28;20101;-80
2024/01/06 07:12:35;;;;;;;24.43;13.07;;;4.40;99.90;;;;;;5014976;28;20543;-79
2024/01/06 07:15:02;;;;;;;24.87;13.67;;;4.30;99.90;;;;;;4997425;28;20489;-79
2024/01/06 07:17:27;;;;;;;24.03;13.27;;;4.40;99.90;;;;;;5014698;28;20101;-79
2024/01/06 07:19:53;;;;;;;21.87;12.43;;;4.40;99.90;;;;;;5014890;28;20109;-79
2024/01/06 07:22:19;;;;;;;26.03;14.93;;;4.40;99.90;;;;;;5014463;28;20029;-80
2024/01/06 07:24:45;;;;;;;24.17;13.57;;;4.40;99.90;;;;;;5015049;28;20025;-80
2024/01/06 07:27:11;;;;;;;25.33;14.00;;;4.40;99.90;;;;;;4997286;28;20108;-80
2024/01/06 07:29:37;;;;;;;23.93;13.50;;;4.30;99.90;;;;;;5014813;28;20049;-80
2024/01/06 07:32:03;;;;;;;25.20;13.33;;;4.30;99.90;;;;;;4995816;28;20106;-81
2024/01/06 07:34:29;;;;;;;26.17;14.10;;;4.30;99.90;;;;;;5014482;28;20025;-80
2024/01/06 07:36:54;;;;;;;25.40;14.87;;;4.30;99.90;;;;;;5014539;28;20092;-80
2024/01/06 07:39:20;;;;;;;22.63;13.40;;;4.40;99.90;;;;;;4996698;28;20041;-79
2024/01/06 07:41:46;;;;;;;23.63;13.40;;;4.30;99.90;;;;;;5014494;28;20025;-80
2024/01/06 07:44:12;;;;;;;24.93;15.03;;;4.30;99.90;;;;;;5014183;28;20037;-80
2024/01/06 07:46:41;;;;;;;22.57;12.40;;;4.30;99.90;;;;;;5014179;28;20022;-80
2024/01/06 07:49:07;;;;;;;25.53;13.30;;;4.30;99.90;;;;;;5014177;28;20398;-80
2024/01/06 07:51:34;;;;;;;24.80;13.07;;;4.30;99.90;;;;;;5012562;28;20034;-81
2024/01/06 07:54:00;;;;;;;21.87;13.17;;;4.30;99.90;;;;;;4994241;28;20022;-81
2024/01/06 07:56:26;;;;;;;21.60;12.03;;;4.40;99.90;;;;;;4994122;28;20015;-80
2024/01/06 07:58:52;;;;;;;25.60;13.63;;;4.40;99.90;;;;;;4991475;28;20029;-80
2024/01/06 08:01:18;;;;;;;22.03;12.67;;;4.30;99.90;;;;;;4994536;28;20523;-80
2024/01/06 08:03:44;;;;;;;23.93;12.93;;;4.40;99.90;;;;;;4996927;28;20105;-79
2024/01/06 08:06:10;;;;;;;22.63;12.23;;;4.40;99.90;;;;;;5015694;28;20033;-80
2024/01/06 08:08:36;;;;;;;22.60;11.73;;;4.40;99.90;;;;;;5013993;28;20493;-80
2024/01/06 08:11:01;;;;;;;21.63;11.73;;;4.40;99.90;;;;;;4996246;28;20022;-80
2024/01/06 08:13:27;;;;;;;21.47;11.20;;;4.40;99.90;;;;;;4996401;28;20032;-80
2024/01/06 08:15:53;;;;;;;22.53;11.60;;;4.40;99.90;;;;;;5013879;28;20100;-79
2024/01/06 08:18:18;;;;;;;21.07;11.40;;;4.40;99.90;;;;;;5013405;28;20105;-81
2024/01/06 08:20:44;;;;;;;21.13;11.70;;;4.50;99.90;;;;;;4985727;28;20081;-80
2024/01/06 08:23:10;;;;;;;26.13;13.63;;;4.40;99.90;;;;;;4994045;28;20081;-79
2024/01/06 08:25:36;;;;;;;18.53;10.37;;;4.40;99.90;;;;;;4994126;28;20412;-79
2024/01/06 08:28:02;;;;;;;23.10;11.20;;;4.40;99.90;;;;;;4993941;28;20026;-79
2024/01/06 08:30:28;;;;;;;24.20;11.23;;;4.40;99.90;;;;;;4976784;28;20109;-80
2024/01/06 08:32:53;;;;;;;22.43;11.20;;;4.40;99.90;;;;;;4976134;28;20026;-80
2024/01/06 08:35:19;;;;;;;22.80;12.00;;;4.40;99.90;;;;;;4994005;28;20042;-79
2024/01/06 08:37:45;;;;;;;27.83;13.00;;;4.40;99.90;;;;;;4993984;28;20053;-80
2024/01/06 08:40:11;;;;;;;23.87;11.33;;;4.30;99.90;;;;;;4993788;28;20050;-79
2024/01/06 08:42:37;;;;;;;22.33;11.97;;;4.40;99.90;;;;;;4993887;28;20027;-81
2024/01/06 08:45:04;;;;;;;24.30;12.70;;;4.40;99.90;;;;;;4993758;28;20133;-79
2024/01/06 08:47:30;;;;;;;24.73;12.10;;;4.40;99.90;;;;;;4993769;28;20026;-80
2024/01/06 08:49:56;;;;;;;25.43;13.00;;;4.40;99.90;;;;;;4993747;28;20032;-81
2024/01/06 08:52:22;;;;;;;27.17;13.83;;;4.50;99.90;;;;;;4993762;28;20033;-80
2024/01/06 08:54:49;;;;;;;24.17;13.10;;;4.50;99.90;;;;;;4976257;28;20410;-80
2024/01/06 08:57:15;;;;;;;23.93;11.10;;;4.50;99.90;;;;;;4976061;28;20019;-79
2024/01/06 08:59:40;;;;;;;25.33;13.17;;;4.40;99.90;;;;;;4993367;28;20041;-81
2024/01/06 09:02:06;;;;;;;24.17;11.80;;;4.50;99.90;;;;;;4993579;28;20056;-81
2024/01/06 09:04:32;;;;;;;28.57;13.00;;;4.50;99.90;;;;;;4993425;28;20081;-81
2024/01/06 09:06:57;;;;;;;25.83;13.27;;;4.40;99.90;;;;;;4993703;28;20038;-81
2024/01/06 09:09:23;;;;;;;25.20;12.97;;;4.50;99.90;;;;;;4993514;28;20026;-79
2024/01/06 09:11:49;;;;;;;26.63;12.57;;;4.50;99.90;;;;;;4975861;28;20037;-81
2024/01/06 09:14:18;;;;;;;23.47;13.20;;;4.50;99.90;;;;;;4993863;28;20027;-82
2024/01/06 09:16:43;;;;;;;25.70;13.50;;;4.50;99.90;;;;;;4993312;28;20018;-80
2024/01/06 09:19:09;;;;;;;28.93;14.90;;;4.50;99.90;;;;;;4993860;28;20030;-81
2024/01/06 09:21:35;;;;;;;26.50;13.30;;;4.50;99.90;;;;;;4976607;28;20479;-81
2024/01/06 09:24:05;;;;;;;25.93;13.63;;;4.50;99.90;;;;;;4994036;28;20078;-81
2024/01/06 09:26:33;;;;;;;23.47;12.97;;;4.50;99.90;;;;;;4993958;28;20041;-81
2024/01/06 09:29:00;;;;;;;24.40;12.77;;;4.60;99.90;;;;;;4975775;28;20046;-80
2024/01/06 09:31:26;;;;;;;23.00;12.17;;;4.50;99.90;;;;;;4993054;28;20023;-81
2024/01/06 09:33:51;;;;;;;26.93;14.03;;;4.50;99.90;;;;;;4993764;28;20023;-80
2024/01/06 09:36:17;;;;;;;31.47;15.00;;;4.50;99.90;;;;;;4993645;28;20475;-81
2024/01/06 09:38:43;;;;;;;29.40;15.33;;;4.40;99.90;;;;;;4993349;28;20053;-81
2024/01/06 09:41:09;;;;;;;26.07;14.43;;;4.50;99.90;;;;;;4993311;28;20479;-81
2024/01/06 09:43:34;;;;;;;25.77;13.87;;;4.50;99.90;;;;;;4993698;28;20522;-81
2024/01/06 09:46:15;;;;;;;24.17;13.33;;;4.40;99.90;;;;;;4976006;28;20022;-81
2024/01/06 09:48:44;;;;;;;20.97;11.97;;;4.40;99.90;;;;;;4995123;28;20030;-81
2024/01/06 09:51:11;;;;;;;20.90;12.00;;;4.40;99.90;;;;;;4975637;28;20121;-81
2024/01/06 09:53:48;;;;;;;23.50;12.60;;;4.40;99.90;;;;;;4993911;28;19976;-80
2024/01/06 09:56:16;;;;;;;26.13;13.67;;;4.40;99.90;;;;;;4978843;28;20025;-80
2024/01/06 09:58:42;;;;;;;25.63;14.10;;;4.40;99.90;;;;;;4995724;28;20058;-80
2024/01/06 10:01:09;;;;;;;28.93;14.97;;;4.40;99.90;;;;;;4996956;28;20399;-80
2024/01/06 10:03:36;;;;;;;27.83;14.33;;;4.50;99.90;;;;;;4979330;28;20439;-80
2024/01/06 10:06:04;;;;;;;26.47;14.17;;;4.40;99.90;;;;;;4996993;28;20033;-80
2024/01/06 10:08:30;;;;;;;25.67;14.50;;;4.40;99.90;;;;;;4996837;28;20026;-80
2024/01/06 10:10:55;;;;;;;24.57;13.67;;;4.50;99.90;;;;;;4996426;28;20014;-79
2024/01/06 10:13:21;;;;;;;20.23;12.10;;;4.50;99.90;;;;;;4978891;28;20038;-79
2024/01/06 10:15:47;;;;;;;23.73;12.97;;;4.50;99.90;;;;;;4996903;28;20050;-79
2024/01/06 10:18:13;;;;;;;22.40;12.30;;;4.50;99.90;;;;;;4996503;28;20101;-79
2024/01/06 10:20:39;;;;;;;21.27;12.10;;;4.60;99.90;;;;;;4996543;28;20384;-80
2024/01/06 10:23:06;;;;;;;24.83;13.83;;;4.50;99.90;;;;;;4990109;28;20037;-80
2024/01/06 10:25:32;;;;;;;24.50;14.00;;;4.50;99.90;;;;;;4978783;28;20037;-80
2024/01/06 10:28:01;;;;;;;24.30;13.20;;;4.40;99.90;;;;;;4978103;28;20451;-80
2024/01/06 10:30:27;;;;;;;23.90;12.77;;;4.50;99.90;;;;;;4977270;28;20026;-81
2024/01/06 10:32:53;;;;;;;22.53;13.10;;;4.60;99.90;;;;;;4976164;28;20029;-81
2024/01/06 10:35:19;;;;;;;25.00;14.07;;;4.60;99.90;;;;;;4976842;28;20468;-80
2024/01/06 10:37:45;;;;;;;24.73;14.33;;;4.50;99.90;;;;;;4978298;28;20029;-81
2024/01/06 10:40:18;;;;;;;23.63;12.60;;;4.80;99.90;;;;;;4995743;28;20053;-80
2024/01/06 10:42:45;;;;;;;22.10;12.17;;;4.60;99.90;;;;;;4995789;28;20029;-80
2024/01/06 10:45:12;;;;;;;24.80;13.30;;;4.60;99.90;;;;;;4996226;28;20026;-79
2024/01/06 10:47:43;;;;;;;27.87;15.33;;;4.60;99.90;;;;;;4995908;28;20034;-80
2024/01/06 10:50:09;;;;;;;24.30;13.97;;;4.70;99.90;;;;;;4996281;28;20022;-79
2024/01/06 10:52:38;;;;;;;26.80;15.93;;;4.70;99.90;;;;;;4995486;28;20030;-78
2024/01/06 10:55:05;;;;;;;27.97;15.73;;;4.60;99.90;;;;;;4996451;28;20528;-79
2024/01/06 10:57:34;;;;;;;26.47;14.30;;;4.60;99.90;;;;;;4995838;28;20034;-80
2024/01/06 11:00:00;;;;;;;25.13;14.43;;;4.60;99.90;;;;;;4978410;28;20025;-81
2024/01/06 11:02:27;;;;;;;26.53;14.33;;;4.60;99.90;;;;;;4978032;28;20026;-80
2024/01/06 11:04:53;;;;;;;25.83;14.43;;;4.60;99.90;;;;;;4994163;28;20505;-79
2024/01/06 11:07:20;;;;;;;23.27;14.90;;;4.60;99.90;;;;;;4977370;28;20023;-81
2024/01/06 11:10:11;;;;;;;23.93;15.10;;;4.70;99.90;;;;;;4995438;28;20029;-80
2024/01/06 11:12:37;;;;;;;26.97;15.70;;;4.60;99.90;;;;;;4995458;28;20076;-81
2024/01/06 11:15:04;;;;;;;24.27;13.97;;;4.70;99.90;;;;;;4978281;28;20022;-80
2024/01/06 11:17:53;;;;;;;24.20;13.70;;;4.60;99.90;;;;;;4995338;28;20471;-80
2024/01/06 11:20:23;;;;;;;25.80;14.43;;;4.60;99.90;;;;;;4979814;28;20034;-80
2024/01/06 11:22:49;;;;;;;27.13;15.60;;;4.60;99.90;;;;;;4994618;28;20517;-81
2024/01/06 11:25:18;;;;;;;23.90;13.97;;;4.60;99.90;;;;;;4994321;28;20034;-80
2024/01/06 11:27:45;;;;;;;25.80;15.10;;;4.60;99.90;;;;;;4993759;28;20049;-80
2024/01/06 11:30:21;;;;;;;24.70;13.90;;;4.60;99.90;;;;;;4994853;28;20065;-79
2024/01/06 11:32:46;;;;;;;24.40;14.13;;;4.60;99.90;;;;;;4994280;28;20034;-81
2024/01/06 11:35:14;;;;;;;24.47;14.60;;;4.60;99.90;;;;;;4995430;28;20026;-79
2024/01/06 11:37:39;;;;;;;22.40;13.30;;;4.60;99.90;;;;;;4994434;28;20029;-80
2024/01/06 11:40:21;;;;;;;24.57;13.87;;;4.70;99.90;;;;;;4994624;28;20051;-81
2024/01/06 11:42:56;;;;;;;26.83;14.10;;;4.60;99.90;;;;;;4977600;28;20034;-81
2024/01/06 11:45:21;;;;;;;22.43;12.93;;;4.60;99.90;;;;;;4977479;28;20041;-81
2024/01/06 11:47:48;;;;;;;22.50;13.20;;;4.60;99.90;;;;;;4994992;28;20420;-80
2024/01/06 11:50:15;;;;;;;21.93;12.87;;;4.60;99.90;;;;;;4994949;28;20093;-80
2024/01/06 11:52:41;;;;;;;21.63;12.80;;;4.50;99.90;;;;;;4994536;28;20109;-79
2024/01/06 11:55:10;;;;;;;21.90;12.77;;;4.50;99.90;;;;;;4994563;28;20031;-81
2024/01/06 11:57:36;;;;;;;23.73;13.27;;;4.50;99.90;;;;;;4993402;28;20038;-81
2024/01/06 12:00:04;;;;;;;22.97;13.03;;;4.60;99.90;;;;;;4994473;28;20026;-80
2024/01/06 12:02:29;;;;;;;21.93;13.33;;;4.50;99.90;;;;;;4994181;28;20069;-81
2024/01/06 12:04:55;;;;;;;23.07;13.13;;;4.50;99.90;;;;;;4976364;28;20065;-81
2024/01/06 12:07:24;;;;;;;21.13;13.87;;;4.50;99.90;;;;;;4994144;28;20030;-80
2024/01/06 12:09:59;;;;;;;23.10;13.80;;;4.50;99.90;;;;;;4991353;28;20038;-80
2024/01/06 12:12:25;;;;;;;20.87;12.27;;;4.50;99.90;;;;;;4975920;28;20372;-80
2024/01/06 12:14:51;;;;;;;24.03;13.13;;;4.40;99.90;;;;;;4993930;28;20030;-80
2024/01/06 12:17:16;;;;;;;22.57;12.20;;;4.40;99.90;;;;;;4993749;28;20034;-80
2024/01/06 12:19:42;;;;;;;21.70;12.50;;;4.60;99.90;;;;;;4994127;28;20041;-80
2024/01/06 12:22:13;;;;;;;21.50;13.07;;;4.40;99.90;;;;;;4993697;28;20363;-80
2024/01/06 12:24:44;;;;;;;20.70;12.17;;;4.40;99.90;;;;;;4993725;28;20023;-80
2024/01/06 12:27:10;;;;;;;21.10;12.80;;;4.40;99.90;;;;;;4993780;28;20024;-80
2024/01/06 12:29:39;;;;;;;22.40;13.00;;;4.40;99.90;;;;;;4993516;28;20022;-79
2024/01/06 12:32:05;;;;;;;20.20;12.83;;;4.40;99.90;;;;;;4993176;28;20503;-80